Altus, OK

9:30 PM CDT on October 01, 2014 (GMT -0500)
Corbin & Russell Addition | Change Station
CLOSE
Current Station
Personal Weather Station
Location: Altus, OK
Elevation: 1407 ft
Nearby Weather Stations

Elev 1407 ft 34.65 °N, 99.34 °W | Updated 10 seconds ago

Clear
Clear
83.8 °F
Feels Like 85 °F
N
1.0
Wind Variable Wind from SW
Gusts 1.0 mph

Today
High -- | Low -- °F
--% Chance of Precip.
Yesterday
High -- | Low -- °F
Precip. -- in
7:31 AM 7:21 PM
First Quarter, 53% visible
Pressure 29.66 in
Visibility 10.0 miles
Clouds Scattered Clouds 7000 ft
Heat Index 85 °F
Dew Point 64 °F
Humidity 51%
Rainfall 0.00 in
Snow Depth Not available.
UV 0 out of 12
Pollen 9.60 out of 12
Air Quality Not available.
Flu Activity Not available.
METAR KLTS 020158Z 21005KT 10SM SCT070 28/18 A2970 RMK AO2A SLP042 T02840178 $

More Conditions Fewer Conditions

Pressure 29.66 in
Visibility 10.0 miles
Clouds Scattered Clouds 7000 ft
Heat Index 85 °F
Dew Point 64 °F
Humidity 51%
Rainfall 0.00 in
Snow Depth Not available.
UV 0 out of 12
Pollen 9.60 out of 12
Air Quality Not available.
Flu Activity Not available.
METAR KLTS 020158Z 21005KT 10SM SCT070 28/18 A2970 RMK AO2A SLP042 T02840178 $

More Conditions Fewer Conditions

10-Day Weather Forecast

Almanac

Astronomy

Oct. 01, 2014 Rise Set
Actual Time 7:31 AM CDT 7:21 PM CDT
Civil Twilight 7:06 AM CDT 7:46 PM CDT
Nautical Twilight 6:37 AM CDT 8:15 PM CDT
Astronomical Twilight 6:08 AM CDT 8:44 PM CDT
Moon 2:23 PM CDT (10/1) 12:05 AM CDT (10/1)
Length of Visible Light 12h 39m
Length of Day
11h 49m
Tomorrow will be 2m 9s shorter.
First Quarter, 53% of the Moon is Illuminated
Today
First Quarter
Oct 8
Full
Oct 15
Last Quarter
Oct 23
New
Oct 30
First Quarter

Today's Extremes

State Highs State Lows

Community

WunderPhotos

Upload Photos

1,758,147 photos uploaded!

WunderBlogs® & News

Nearby

Snow Depth

Station Depth Elevation
No new snow has been reported.

Earthquake Activity

City Distance Mag. Time & Date
Guthrie, Oklahoma 136 miles 3.0 5:15 PM CDT
2014-10-01
Spencer, Oklahoma 126 miles 3.0 5:12 PM CDT
2014-09-30
Perry, Oklahoma 147 miles 3.5 1:06 AM CDT
2014-09-30
Perry, Oklahoma 147 miles 3.3 12:58 AM CDT
2014-09-30
Minimum magnitude displayed is 2.5.

Coastal Water Temperatures

Place Temperature
No Stations Reporting

Nearby Weather Stations